Time;durP1;ratioP1;P1;durP2;ratioP2;P2;SDS_P1;SDS_P2;PMS_P1;PMS_P2;Temp;Humidity;BMP_temperature;BMP_pressure;BME280_temperature;BME280_humidity;BME280_pressure;Samples;Min_cycle;Max_cycle;Signal;HPM_P1;HPM_P2
2021/06/03 00:02:14;;;;;;;1117.88;999.90;;;;;;;20.97;44.85;100868.53;5049941;28;20041;-49
2021/06/03 00:04:40;;;;;;;1116.45;999.90;;;;;;;20.95;44.62;100873.31;5051693;28;20089;-52
2021/06/03 00:07:06;;;;;;;1120.00;999.90;;;;;;;20.97;44.79;100871.25;5061533;28;20028;-57
2021/06/03 00:09:32;;;;;;;1115.90;999.90;;;;;;;20.96;44.83;100877.75;5050057;28;20033;-54
2021/06/03 00:11:58;;;;;;;1117.38;999.90;;;;;;;20.95;44.68;100876.03;5051639;28;20072;-52
2021/06/03 00:14:24;;;;;;;1118.07;999.90;;;;;;;20.95;44.77;100876.03;5056768;28;20036;-52
2021/06/03 00:16:50;;;;;;;1118.15;999.90;;;;;;;20.95;44.68;100880.66;5037172;28;20492;-54
2021/06/03 00:19:16;;;;;;;1116.90;999.90;;;;;;;20.94;44.76;100874.34;5065990;28;20064;-51
2021/06/03 00:21:43;;;;;;;1117.30;999.90;;;;;;;20.93;44.65;100872.66;5063109;28;20049;-52
2021/06/03 00:24:14;;;;;;;1117.43;999.90;;;;;;;20.94;44.79;100876.25;5040509;28;20055;-56
2021/06/03 00:26:40;;;;;;;1116.35;999.90;;;;;;;20.93;44.76;100880.84;5065651;28;20044;-52
2021/06/03 00:29:06;;;;;;;1117.70;999.90;;;;;;;20.92;44.70;100875.59;5065652;28;20045;-52
2021/06/03 00:31:33;;;;;;;1116.05;999.90;;;;;;;20.89;44.56;100868.66;5067205;28;20044;-53
2021/06/03 00:34:00;;;;;;;1117.13;999.90;;;;;;;20.88;44.71;100868.84;5068537;28;20024;-53
2021/06/03 00:36:26;;;;;;;1116.93;999.90;;;;;;;20.89;44.63;100870.53;5064349;28;20033;-52
2021/06/03 00:38:51;;;;;;;1115.72;999.90;;;;;;;20.87;44.52;100873.47;5068530;28;20130;-49
2021/06/03 00:41:19;;;;;;;1119.47;999.90;;;;;;;20.86;44.56;100879.97;5062291;28;20024;-57
2021/06/03 00:43:45;;;;;;;1114.93;999.90;;;;;;;20.86;44.58;100873.66;5051912;28;20044;-53
2021/06/03 00:46:12;;;;;;;1117.32;999.90;;;;;;;20.85;44.45;100880.16;5061473;28;20055;-54
2021/06/03 00:48:38;;;;;;;1114.70;999.90;;;;;;;20.83;44.51;100872.16;5062655;28;20036;-51
2021/06/03 00:51:06;;;;;;;1114.93;999.90;;;;;;;20.83;44.61;100876.75;5049235;28;20036;-52
2021/06/03 00:53:35;;;;;;;1112.10;999.90;;;;;;;20.82;44.51;100877.81;5038167;28;20035;-49
2021/06/03 00:56:02;;;;;;;1114.60;999.90;;;;;;;20.82;44.46;100873.19;5060874;28;20043;-53
2021/06/03 00:58:28;;;;;;;1116.95;999.90;;;;;;;20.81;44.26;100870.66;5060217;28;20029;-51
2021/06/03 01:00:55;;;;;;;1114.65;999.90;;;;;;;20.82;44.52;100880.53;5067514;28;20404;-52
2021/06/03 01:03:23;;;;;;;1118.88;999.90;;;;;;;20.80;44.60;100878.00;5063465;28;20396;-55
2021/06/03 01:06:10;;;;;;;1115.43;999.90;;;;;;;20.81;44.46;100881.56;5054202;28;20495;-52
2021/06/03 01:08:47;;;;;;;1114.60;999.90;;;;;;;20.79;44.55;100879.03;5057463;28;20508;-50
2021/06/03 01:11:23;;;;;;;1114.13;999.90;;;;;;;20.79;44.60;100881.78;5058852;28;20039;-55
2021/06/03 01:14:09;;;;;;;1117.13;999.90;;;;;;;20.78;44.44;100874.63;5056784;28;20298;-52
2021/06/03 01:16:36;;;;;;;1112.03;999.90;;;;;;;20.80;44.49;100877.16;5063034;28;20033;-52
2021/06/03 01:19:07;;;;;;;1117.97;999.90;;;;;;;20.78;44.59;100882.81;5060152;28;20067;-54
2021/06/03 01:21:43;;;;;;;1114.55;999.90;;;;;;;20.77;44.61;100878.41;5067699;28;20403;-51
2021/06/03 01:24:16;;;;;;;1110.70;999.90;;;;;;;20.77;44.45;100885.75;5066527;28;20527;-50
2021/06/03 01:26:44;;;;;;;1115.15;999.90;;;;;;;20.78;44.50;100876.53;5062325;28;20291;-51
2021/06/03 01:29:13;;;;;;;1115.53;999.90;;;;;;;20.76;44.60;100873.16;5060106;28;20029;-53
2021/06/03 01:31:40;;;;;;;1115.97;999.90;;;;;;;20.76;44.48;100878.59;5063321;28;20041;-51
2021/06/03 01:34:08;;;;;;;1114.85;999.90;;;;;;;20.76;44.66;100875.88;5068162;28;20020;-51
2021/06/03 01:36:34;;;;;;;1114.65;999.90;;;;;;;20.76;44.52;100875.88;5058396;28;20031;-55
2021/06/03 01:39:04;;;;;;;1116.20;999.90;;;;;;;20.77;44.41;100885.75;5069835;28;20048;-51
2021/06/03 01:41:30;;;;;;;1118.97;999.90;;;;;;;20.76;44.52;100881.34;5064426;28;20040;-51
2021/06/03 01:43:56;;;;;;;1113.32;999.90;;;;;;;20.75;44.81;100883.22;5062959;28;20459;-53
2021/06/03 01:46:22;;;;;;;1117.10;999.90;;;;;;;20.75;44.52;100883.22;5069158;28;20520;-54
2021/06/03 01:48:49;;;;;;;1115.93;999.90;;;;;;;20.74;44.48;100887.00;5069511;28;20040;-50
2021/06/03 01:51:15;;;;;;;1116.45;999.90;;;;;;;20.75;44.43;100882.38;5069062;28;20055;-53
2021/06/03 01:53:42;;;;;;;1113.55;999.90;;;;;;;20.72;44.53;100879.00;5059953;28;20025;-53
2021/06/03 01:56:11;;;;;;;1114.05;999.90;;;;;;;20.72;44.53;100881.72;5039265;28;20398;-55
2021/06/03 01:58:38;;;;;;;1117.85;999.90;;;;;;;20.73;44.49;100883.41;5045751;28;20040;-50
2021/06/03 02:01:04;;;;;;;1116.13;999.90;;;;;;;20.73;44.40;100886.16;5052850;28;20033;-52
2021/06/03 02:03:30;;;;;;;1114.07;999.90;;;;;;;20.73;44.35;100879.84;5071465;28;20025;-51
2021/06/03 02:05:56;;;;;;;1118.05;999.90;;;;;;;20.72;44.40;100881.72;5057994;28;20067;-53
2021/06/03 02:08:23;;;;;;;1117.25;999.90;;;;;;;20.72;44.54;100892.66;5058833;28;20028;-52
2021/06/03 02:10:50;;;;;;;1116.30;999.90;;;;;;;20.73;44.39;100893.47;5047509;28;20400;-62
2021/06/03 02:13:38;;;;;;;1118.53;999.90;;;;;;;20.72;44.66;100895.38;5062383;28;20029;-53
2021/06/03 02:16:17;;;;;;;1116.20;999.90;;;;;;;20.73;44.42;100899.78;5057635;28;20036;-49
2021/06/03 02:18:47;;;;;;;1116.70;999.90;;;;;;;20.73;44.29;100897.06;5050593;28;20049;-51
2021/06/03 02:21:14;;;;;;;1116.57;999.90;;;;;;;20.73;44.38;100901.66;5064114;28;20040;-54
2021/06/03 02:23:41;;;;;;;1118.55;999.90;;;;;;;20.71;44.39;100910.00;5067080;28;20477;-51
2021/06/03 02:26:07;;;;;;;1118.03;999.90;;;;;;;20.72;44.37;100914.47;5066105;28;20032;-50
2021/06/03 02:28:34;;;;;;;1117.80;999.90;;;;;;;20.73;44.42;100918.03;5059342;28;20165;-50
2021/06/03 02:31:00;;;;;;;1116.65;999.90;;;;;;;20.74;44.35;100925.19;5052722;28;20029;-51
2021/06/03 02:33:29;;;;;;;1115.07;999.90;;;;;;;20.70;44.36;100921.97;5069052;28;20404;-51
2021/06/03 02:35:55;;;;;;;;;;;;;;;20.71;44.44;100920.94;5066863;28;20071;-55
2021/06/03 02:38:25;;;;;;;1113.13;999.90;;;;;;;20.69;44.38;100920.28;5066166;28;19913;-51
2021/06/03 02:40:53;;;;;;;1116.75;999.90;;;;;;;20.70;44.43;100921.13;5054895;28;20043;-55
2021/06/03 02:43:19;;;;;;;1115.57;999.90;;;;;;;20.69;44.35;100911.25;5066408;28;20043;-51
2021/06/03 02:45:45;;;;;;;1114.47;999.90;;;;;;;20.69;44.34;100906.66;5069007;28;20048;-50
2021/06/03 02:48:11;;;;;;;1114.72;999.90;;;;;;;20.68;44.44;100906.84;5062004;28;20039;-50
2021/06/03 02:50:37;;;;;;;1116.97;999.90;;;;;;;20.69;44.47;100908.53;5066477;28;20041;-53
2021/06/03 02:53:03;;;;;;;1115.25;999.90;;;;;;;20.69;44.42;100906.66;5058811;28;20047;-50
2021/06/03 02:55:30;;;;;;;1114.38;999.90;;;;;;;20.68;44.39;100907.69;5070065;28;20024;-51
2021/06/03 02:57:55;;;;;;;1116.82;999.90;;;;;;;20.70;44.28;100910.22;5060178;28;20044;-55
2021/06/03 03:00:25;;;;;;;1116.80;999.90;;;;;;;20.68;44.33;100902.22;5070048;28;20035;-52
2021/06/03 03:02:51;;;;;;;1114.75;999.90;;;;;;;20.68;44.44;100912.28;5068094;28;20381;-50
2021/06/03 03:05:17;;;;;;;1113.68;999.90;;;;;;;20.66;44.41;100909.78;5042105;28;20044;-50
2021/06/03 03:07:45;;;;;;;1113.68;999.90;;;;;;;20.69;44.51;100911.25;5058070;28;20515;-51
2021/06/03 03:10:16;;;;;;;1115.47;999.90;;;;;;;20.68;44.22;100913.13;5058901;28;20404;-53
2021/06/03 03:12:42;;;;;;;1114.53;999.90;;;;;;;20.66;44.42;100912.50;5057310;28;20176;-52
2021/06/03 03:15:09;;;;;;;1113.70;999.90;;;;;;;20.67;44.35;100913.34;5066250;28;20476;-52
2021/06/03 03:17:35;;;;;;;1115.80;999.90;;;;;;;20.66;44.42;100911.66;5049047;28;20040;-53
2021/06/03 03:20:02;;;;;;;1117.00;999.90;;;;;;;20.68;44.17;100907.69;5068405;28;20042;-53
2021/06/03 03:22:28;;;;;;;1114.85;999.90;;;;;;;20.65;44.41;100913.53;5050006;28;20040;-54
2021/06/03 03:24:54;;;;;;;1116.07;999.90;;;;;;;20.67;44.36;100918.78;5067768;28;20041;-52
2021/06/03 03:27:20;;;;;;;1114.40;999.90;;;;;;;20.66;44.28;100920.69;5052967;28;20039;-51
2021/06/03 03:29:45;;;;;;;1113.28;999.90;;;;;;;20.65;44.37;100919.00;5058335;28;20037;-52
2021/06/03 03:32:11;;;;;;;1120.07;999.90;;;;;;;20.65;44.46;100924.44;5065917;28;20066;-51
2021/06/03 03:34:37;;;;;;;1118.30;999.90;;;;;;;20.66;44.38;100926.13;5069427;28;20472;-52
2021/06/03 03:37:03;;;;;;;1116.38;999.90;;;;;;;20.65;44.22;100926.31;5062685;28;20039;-56
2021/06/03 03:39:29;;;;;;;1116.80;999.90;;;;;;;20.63;44.42;100926.53;5062629;28;20032;-52
2021/06/03 03:41:55;;;;;;;1115.60;999.90;;;;;;;20.64;44.33;100928.22;5059642;28;20373;-53
2021/06/03 03:44:21;;;;;;;1117.00;999.90;;;;;;;20.65;44.35;100929.91;5058381;28;20036;-49
2021/06/03 03:46:47;;;;;;;1117.10;999.90;;;;;;;20.66;44.33;100926.13;5068047;28;20094;-51
2021/06/03 03:49:13;;;;;;;1115.50;999.90;;;;;;;20.65;44.33;100935.34;5065172;28;20043;-52
2021/06/03 03:51:39;;;;;;;1116.78;999.90;;;;;;;20.66;44.38;100926.13;5051227;28;20520;-53
2021/06/03 03:54:05;;;;;;;1117.03;999.90;;;;;;;20.64;44.35;100928.22;5064088;28;20027;-51
2021/06/03 03:56:31;;;;;;;1114.45;999.90;;;;;;;20.65;44.32;100924.44;5065516;28;20408;-56
2021/06/03 03:58:58;;;;;;;1113.75;999.90;;;;;;;20.64;44.39;100930.94;5066323;28;20032;-50
2021/06/03 04:01:27;;;;;;;1120.00;999.90;;;;;;;20.65;44.23;100932.63;5066016;28;20036;-51
2021/06/03 04:03:54;;;;;;;1114.97;999.90;;;;;;;20.66;44.29;100933.47;5063505;28;20024;-50
2021/06/03 04:06:20;;;;;;;1116.75;999.90;;;;;;;20.66;44.30;100933.47;5054426;28;20037;-49
2021/06/03 04:08:46;;;;;;;1118.68;999.90;;;;;;;20.64;44.19;100930.94;5051134;28;20032;-54
2021/06/03 04:11:12;;;;;;;1117.68;999.90;;;;;;;20.65;44.32;100934.50;5062713;28;20036;-54
2021/06/03 04:13:38;;;;;;;1116.22;999.90;;;;;;;20.65;44.34;100929.91;5079825;22;20063;-47
2021/06/03 04:16:04;;;;;;;1115.90;999.90;;;;;;;20.66;44.25;100928.00;5067497;28;20047;-50
2021/06/03 04:18:30;;;;;;;1118.18;999.90;;;;;;;20.66;44.31;100933.47;5063159;28;20040;-45
2021/06/03 04:20:56;;;;;;;1116.85;999.90;;;;;;;20.64;44.35;100922.75;5068948;28;20024;-45
2021/06/03 04:23:22;;;;;;;1116.82;999.90;;;;;;;20.66;44.20;100919.84;5050386;28;20080;-44
2021/06/03 04:25:48;;;;;;;1113.82;999.90;;;;;;;20.66;44.30;100933.47;5049059;28;20045;-44
2021/06/03 04:28:14;;;;;;;1114.00;999.90;;;;;;;20.67;44.29;100927.81;5047364;28;20534;-48
2021/06/03 04:30:42;;;;;;;1114.95;999.90;;;;;;;20.66;44.27;100930.75;5031450;28;20055;-47
2021/06/03 04:33:09;;;;;;;1113.00;999.90;;;;;;;20.66;44.39;100942.50;5045428;28;20321;-45
2021/06/03 04:35:36;;;;;;;1115.25;999.90;;;;;;;20.65;44.25;100946.25;5043288;28;20457;-49
2021/06/03 04:38:02;;;;;;;1115.30;999.90;;;;;;;20.67;44.17;100943.34;5047074;28;20382;-44
2021/06/03 04:40:28;;;;;;;1117.45;999.90;;;;;;;20.67;44.19;100944.19;5048161;28;20040;-48
2021/06/03 04:42:54;;;;;;;1115.75;999.90;;;;;;;20.66;44.33;100947.94;5048452;28;20064;-47
2021/06/03 04:45:21;;;;;;;1117.65;999.90;;;;;;;20.66;44.11;100945.22;5048549;28;20472;-46
2021/06/03 04:47:47;;;;;;;1114.40;999.90;;;;;;;20.66;44.15;100950.69;5048238;28;20037;-45
2021/06/03 04:50:16;;;;;;;1115.15;999.90;;;;;;;20.65;44.23;100957.16;5048468;28;20040;-48
2021/06/03 04:52:42;;;;;;;;;;;;;;;20.66;44.15;100956.13;5040330;28;20038;-47
2021/06/03 04:55:11;;;;;;;1112.85;999.90;;;;;;;20.66;44.20;100947.09;5049136;28;19920;-47
2021/06/03 04:57:37;;;;;;;1116.05;999.90;;;;;;;20.66;44.21;100944.38;5046712;28;20025;-48
2021/06/03 05:00:08;;;;;;;1113.95;999.90;;;;;;;20.65;44.23;100946.25;5046314;28;20055;-52
2021/06/03 05:02:35;;;;;;;1116.20;999.90;;;;;;;20.64;44.39;100939.13;5048908;28;20143;-49
2021/06/03 05:05:00;;;;;;;1116.95;999.90;;;;;;;20.65;44.31;100946.25;5047129;28;20028;-45
2021/06/03 05:07:26;;;;;;;1116.45;999.90;;;;;;;20.65;44.32;100951.72;5047600;28;20507;-50
2021/06/03 05:09:52;;;;;;;1115.72;999.90;;;;;;;20.66;44.24;100953.41;5047311;28;20040;-50
2021/06/03 05:12:18;;;;;;;1117.00;999.90;;;;;;;20.65;44.29;100946.25;5046149;28;20068;-48
2021/06/03 05:14:44;;;;;;;1113.35;999.90;;;;;;;20.63;44.30;100950.22;5022397;28;20507;-48
2021/06/03 05:17:10;;;;;;;1116.60;999.90;;;;;;;20.66;44.10;100953.41;5048430;28;20025;-49
2021/06/03 05:19:36;;;;;;;1117.32;999.90;;;;;;;20.67;44.18;100960.53;5046436;28;20520;-49
2021/06/03 05:22:04;;;;;;;1116.35;999.90;;;;;;;20.67;44.21;100955.09;5046943;28;20041;-51
2021/06/03 05:24:30;;;;;;;1114.65;999.90;;;;;;;20.83;43.95;100956.72;5045564;28;20044;-51
2021/06/03 05:26:58;;;;;;;1114.65;999.90;;;;;;;21.06;43.46;100953.81;5046358;28;20441;-53
2021/06/03 05:29:25;;;;;;;1117.13;999.90;;;;;;;21.16;43.19;100954.31;5047179;28;20503;-48
2021/06/03 05:31:52;;;;;;;1115.65;999.90;;;;;;;21.25;43.08;100964.09;5040898;28;20045;-50
2021/06/03 05:34:18;;;;;;;1118.40;999.90;;;;;;;21.29;42.97;100965.38;5045832;28;20404;-51
2021/06/03 05:36:44;;;;;;;1115.28;999.90;;;;;;;21.34;42.92;100961.25;5046724;28;20412;-49
2021/06/03 05:39:11;;;;;;;1118.90;999.90;;;;;;;21.37;42.69;100963.56;5046901;28;20491;-50
2021/06/03 05:41:37;;;;;;;1119.43;999.90;;;;;;;21.40;42.86;100966.75;5046765;28;20033;-55
2021/06/03 05:44:08;;;;;;;1119.95;999.90;;;;;;;21.47;42.76;100969.53;5048751;28;20025;-48
2021/06/03 05:46:35;;;;;;;1121.20;999.90;;;;;;;21.51;42.59;100968.94;5047285;28;20031;-50
2021/06/03 05:49:01;;;;;;;1118.22;999.90;;;;;;;21.54;42.28;100974.00;5045801;28;20519;-56
2021/06/03 05:51:28;;;;;;;1116.57;999.90;;;;;;;21.56;42.43;100971.09;5047762;28;20052;-49
2021/06/03 05:53:54;;;;;;;1117.40;999.90;;;;;;;21.65;42.63;100969.88;5042368;28;20040;-58
2021/06/03 05:56:21;;;;;;;1118.75;999.90;;;;;;;21.67;42.46;100970.53;5018432;28;20045;-59
2021/06/03 05:58:47;;;;;;;1118.85;999.90;;;;;;;21.75;42.21;100972.25;5044712;28;20028;-62
2021/06/03 06:01:13;;;;;;;1121.85;999.90;;;;;;;21.76;41.99;100977.53;5047331;28;20373;-54
2021/06/03 06:03:43;;;;;;;1122.32;999.90;;;;;;;21.76;41.82;100977.53;5044077;28;20024;-61
2021/06/03 06:08:41;;;;;;;1118.72;999.90;;;;;;;21.84;41.81;100976.53;5044532;28;20511;-69
2021/06/03 06:11:07;;;;;;;1120.97;999.90;;;;;;;21.77;41.67;100989.28;5040536;28;20036;-63
2021/06/03 06:13:33;;;;;;;1119.65;999.90;;;;;;;21.75;41.85;100986.75;5050084;28;20020;-50
2021/06/03 06:16:00;;;;;;;1119.10;999.90;;;;;;;21.78;42.39;100989.09;5050941;28;20040;-62
2021/06/03 06:18:25;;;;;;;1120.53;999.90;;;;;;;21.82;42.25;100986.81;5044605;28;20016;-60
2021/06/03 06:20:51;;;;;;;1118.68;999.90;;;;;;;21.82;41.64;100984.09;5049615;28;20044;-57
2021/06/03 06:23:18;;;;;;;1119.25;999.90;;;;;;;21.82;42.45;100987.66;5051497;28;20392;-57
2021/06/03 06:25:45;;;;;;;1122.03;999.90;;;;;;;21.86;42.13;100988.94;5048502;28;20032;-62
2021/06/03 06:28:12;;;;;;;1119.80;999.90;;;;;;;21.82;42.11;100987.66;5050552;28;20507;-58
2021/06/03 06:30:39;;;;;;;1117.78;999.90;;;;;;;21.80;42.04;100986.19;5051321;28;20388;-60
2021/06/03 06:33:05;;;;;;;1117.90;999.90;;;;;;;21.78;42.17;100989.09;5049286;28;20047;-63
2021/06/03 06:35:32;;;;;;;1118.75;999.90;;;;;;;21.78;42.50;100989.09;5049138;28;20032;-59
2021/06/03 06:37:59;;;;;;;1119.28;999.90;;;;;;;21.77;42.57;100994.75;5050833;28;20044;-54
2021/06/03 06:40:25;;;;;;;1119.30;999.90;;;;;;;21.77;42.86;100995.59;5051597;28;20033;-61
2021/06/03 06:42:54;;;;;;;1118.72;999.90;;;;;;;21.76;42.69;100982.16;5050475;28;20576;-56
2021/06/03 06:45:23;;;;;;;1119.57;999.90;;;;;;;21.73;42.79;100983.41;5043772;28;20044;-62
2021/06/03 06:47:48;;;;;;;1118.97;999.90;;;;;;;21.71;42.80;100990.94;5050978;28;20029;-61
2021/06/03 06:50:14;;;;;;;1119.40;999.90;;;;;;;21.70;42.91;100989.25;5049410;28;20049;-68
2021/06/03 06:52:41;;;;;;;1119.97;999.90;;;;;;;21.69;42.91;100987.59;5045051;28;20515;-55
2021/06/03 06:55:08;;;;;;;1115.82;999.90;;;;;;;21.67;42.71;100994.28;5037484;28;20196;-57
2021/06/03 06:57:34;;;;;;;1115.30;999.90;;;;;;;21.64;42.99;100994.66;5050294;28;20024;-56
2021/06/03 07:00:01;;;;;;;1119.30;999.90;;;;;;;21.59;43.04;100995.28;5038507;28;20283;-55
2021/06/03 07:02:26;;;;;;;1119.43;999.90;;;;;;;21.62;43.06;100999.47;5045756;28;20397;-56
2021/06/03 07:04:52;;;;;;;1119.00;999.90;;;;;;;21.62;42.89;101008.53;5034789;28;20049;-58
2021/06/03 07:07:18;;;;;;;1121.15;999.90;;;;;;;21.61;42.99;101006.84;5047044;28;20223;-63
2021/06/03 07:09:44;;;;;;;1117.28;999.90;;;;;;;21.64;42.90;101000.97;5050002;28;20047;-58
2021/06/03 07:12:11;;;;;;;1118.25;999.90;;;;;;;21.59;42.90;100998.00;5046599;28;20037;-60
2021/06/03 07:14:37;;;;;;;1116.90;999.90;;;;;;;21.60;43.00;100996.97;5048939;28;20489;-60
2021/06/03 07:17:03;;;;;;;1120.40;999.90;;;;;;;21.51;42.83;101000.88;5048483;28;20352;-60
2021/06/03 07:19:29;;;;;;;1120.63;999.90;;;;;;;21.55;42.68;101000.28;5047810;28;20492;-61
2021/06/03 07:21:55;;;;;;;1120.68;999.90;;;;;;;21.50;42.55;100999.19;5048433;28;20365;-58
2021/06/03 07:24:21;;;;;;;1121.13;999.90;;;;;;;21.53;42.95;100990.59;5047598;28;20029;-57
2021/06/03 07:26:47;;;;;;;1120.28;999.90;;;;;;;21.53;42.67;100993.31;5049737;28;20029;-57
2021/06/03 07:29:13;;;;;;;1119.82;999.90;;;;;;;21.63;42.86;101009.38;5050450;28;20556;-56
2021/06/03 07:31:39;;;;;;;1119.00;999.90;;;;;;;21.64;43.02;101009.16;5044142;28;20565;-56
2021/06/03 07:34:05;;;;;;;1118.57;999.90;;;;;;;21.63;42.87;101001.16;5048810;28;20032;-61
2021/06/03 07:36:33;;;;;;;1118.28;999.90;;;;;;;21.58;42.76;100993.59;5050470;28;20028;-54
2021/06/03 07:39:00;;;;;;;1113.83;999.90;;;;;;;21.60;42.91;100999.69;5050389;28;20037;-63
2021/06/03 07:41:26;;;;;;;1119.65;999.90;;;;;;;21.59;42.92;101003.47;5040965;28;20032;-56
2021/06/03 07:43:53;;;;;;;1119.35;999.90;;;;;;;21.59;43.24;100998.00;5050040;28;20260;-52
2021/06/03 07:46:19;;;;;;;1116.30;999.90;;;;;;;21.54;43.12;100995.84;5048065;28;20417;-55
2021/06/03 07:48:45;;;;;;;1118.05;999.90;;;;;;;21.55;42.98;101000.28;5048299;28;20041;-54
2021/06/03 07:51:11;;;;;;;1118.68;999.90;;;;;;;21.57;43.01;100994.63;5049743;28;20037;-59
2021/06/03 07:53:38;;;;;;;1118.10;999.90;;;;;;;21.58;43.13;101004.50;5032231;28;20041;-55
2021/06/03 07:56:05;;;;;;;1115.88;999.90;;;;;;;21.58;43.19;100996.31;5047514;28;20043;-60
2021/06/03 07:58:31;;;;;;;1116.35;999.90;;;;;;;21.57;43.08;100998.19;5048428;28;20056;-60
2021/06/03 08:00:57;;;;;;;1119.25;999.90;;;;;;;21.57;43.02;100994.63;5048539;28;20037;-56
2021/06/03 08:03:23;;;;;;;1117.60;999.90;;;;;;;21.58;42.90;100986.22;5047289;28;20036;-58
2021/06/03 08:05:49;;;;;;;1119.22;999.90;;;;;;;21.59;43.10;100992.53;5045784;28;20029;-58
2021/06/03 08:08:15;;;;;;;1117.03;999.90;;;;;;;21.61;43.00;100993.19;5049074;28;20383;-53
2021/06/03 08:10:43;;;;;;;1115.72;999.90;;;;;;;21.62;43.00;100996.75;5047159;28;20028;-58
2021/06/03 08:13:10;;;;;;;1119.53;999.90;;;;;;;21.65;43.08;100996.34;5045653;28;20045;-67
2021/06/03 08:15:38;;;;;;;1117.60;999.90;;;;;;;21.72;42.90;100989.91;5048405;28;20017;-58
2021/06/03 08:18:05;;;;;;;1117.60;999.90;;;;;;;21.80;42.64;100995.22;5047745;28;20477;-58
2021/06/03 08:20:39;;;;;;;1118.43;999.90;;;;;;;21.74;42.32;100998.75;5047025;28;20055;-59
2021/06/03 08:23:07;;;;;;;1118.72;999.90;;;;;;;21.71;42.60;100990.94;5048889;28;20033;-58
2021/06/03 08:25:33;;;;;;;;;;;;;;;21.72;42.75;100992.63;5046933;28;20040;-62
2021/06/03 08:27:59;;;;;;;1112.40;999.90;;;;;;;21.72;42.56;100994.53;5048121;28;19913;-60
2021/06/03 08:30:25;;;;;;;1119.20;999.90;;;;;;;21.69;42.78;100993.03;5048350;28;20032;-62
2021/06/03 08:32:52;;;;;;;1116.38;999.90;;;;;;;21.71;42.82;100999.16;5048177;28;20041;-59
2021/06/03 08:35:21;;;;;;;1118.82;999.90;;;;;;;21.72;42.92;100992.63;5039860;28;20025;-58
2021/06/03 08:37:50;;;;;;;1117.63;999.90;;;;;;;21.72;42.80;101000.84;5048849;28;20104;-56
2021/06/03 08:40:21;;;;;;;1116.75;999.90;;;;;;;21.71;42.65;100995.56;5047442;28;20320;-55
2021/06/03 08:42:54;;;;;;;1116.95;999.90;;;;;;;21.67;42.95;100995.13;5047659;28;20060;-54
2021/06/03 08:45:23;;;;;;;1116.75;999.90;;;;;;;21.67;42.87;101002.47;5048522;28;20025;-55
2021/06/03 08:47:53;;;;;;;1120.13;999.90;;;;;;;21.71;42.75;100995.56;5042949;28;20397;-55
2021/06/03 08:50:20;;;;;;;1117.70;999.90;;;;;;;21.73;42.50;100994.31;5046740;28;20033;-56
2021/06/03 08:52:46;;;;;;;1118.95;999.90;;;;;;;21.69;42.91;100990.31;5044078;28;20036;-58
2021/06/03 08:56:14;;;;;;;1118.22;999.90;;;;;;;21.69;42.79;101001.25;5041116;28;20025;-59
2021/06/03 08:58:05;;;;;;;1120.60;999.90;;;;;;;21.69;42.70;100995.78;5048756;28;20429;-58
2021/06/03 09:00:33;;;;;;;1118.40;999.90;;;;;;;21.68;42.63;100990.50;5047722;28;20504;-59
2021/06/03 09:02:59;;;;;;;1117.03;999.90;;;;;;;21.71;42.53;100995.56;5048576;28;20143;-61
2021/06/03 09:05:25;;;;;;;1117.35;999.90;;;;;;;21.71;42.45;100990.09;5046832;28;20040;-62
2021/06/03 09:07:52;;;;;;;1119.70;999.90;;;;;;;21.70;42.40;100989.25;5042885;28;20060;-57
2021/06/03 09:10:31;;;;;;;1118.65;999.90;;;;;;;21.72;42.72;100997.25;5048117;28;20388;-62
2021/06/03 09:13:05;;;;;;;1118.35;999.90;;;;;;;21.70;42.51;101005.66;5040614;28;20056;-60
2021/06/03 09:15:31;;;;;;;1116.82;999.90;;;;;;;21.71;42.51;100992.84;5050159;28;20035;-63
2021/06/03 09:17:57;;;;;;;1118.07;999.90;;;;;;;21.72;42.65;100994.53;5043093;28;20049;-64
2021/06/03 09:20:25;;;;;;;1116.57;999.90;;;;;;;21.71;42.42;100993.69;5041291;28;20469;-56
2021/06/03 09:22:53;;;;;;;1116.03;999.90;;;;;;;21.69;42.51;100993.03;5047473;28;20173;-59
2021/06/03 09:25:39;;;;;;;1118.95;999.90;;;;;;;21.69;42.34;100987.59;5044052;28;20045;-61
2021/06/03 09:28:19;;;;;;;1117.07;999.90;;;;;;;21.67;42.40;100989.66;5046799;28;20044;-63
2021/06/03 09:30:58;;;;;;;1117.57;999.90;;;;;;;21.69;42.30;100989.47;5046719;28;20416;-58
2021/06/03 09:33:35;;;;;;;1116.88;999.90;;;;;;;21.68;42.38;100985.91;5048144;28;20041;-60
2021/06/03 09:36:03;;;;;;;1116.97;999.90;;;;;;;21.70;42.46;100982.97;5046735;28;20041;-61
2021/06/03 09:38:29;;;;;;;1116.38;999.90;;;;;;;21.80;42.08;100973.38;5042593;28;20043;-62
2021/06/03 09:40:55;;;;;;;1118.30;999.90;;;;;;;21.82;41.86;100974.00;5047470;28;20029;-61
2021/06/03 09:43:22;;;;;;;1117.50;999.90;;;;;;;21.92;42.20;100983.75;5043134;28;20129;-63
2021/06/03 09:45:59;;;;;;;1116.87;999.90;;;;;;;21.85;41.84;100981.78;5045940;28;20045;-65
2021/06/03 09:48:45;;;;;;;1120.93;999.90;;;;;;;21.91;42.30;100982.91;5047695;28;20504;-61
2021/06/03 09:51:26;;;;;;;1121.28;999.90;;;;;;;21.94;41.92;100978.91;5048020;28;20055;-64
2021/06/03 09:54:29;;;;;;;1118.80;999.90;;;;;;;22.12;40.74;100977.34;5048193;28;20041;-64
2021/06/03 09:57:01;;;;;;;1117.63;999.90;;;;;;;22.07;40.91;100965.34;5045345;28;20033;-63
2021/06/03 09:59:34;;;;;;;1121.65;999.90;;;;;;;22.11;40.72;100974.84;5051079;28;20052;-60
2021/06/03 10:02:05;;;;;;;1118.85;999.90;;;;;;;22.06;41.01;100972.72;5051043;28;20041;-57
2021/06/03 10:04:40;;;;;;;1119.60;999.90;;;;;;;22.04;40.75;100979.41;5049927;28;20428;-63
2021/06/03 10:07:06;;;;;;;1119.35;999.90;;;;;;;22.04;40.83;100973.94;5047571;28;20041;-62
2021/06/03 10:09:45;;;;;;;1117.65;999.90;;;;;;;22.05;41.40;100968.25;5042549;28;20488;-62
2021/06/03 10:14:57;;;;;;;1117.18;999.90;;;;;;;22.05;41.61;100965.53;5097434;22;20059;-66
2021/06/03 10:17:28;;;;;;;1118.25;999.90;;;;;;;22.06;41.82;100966.41;5071042;28;20388;-65
2021/06/03 10:19:57;;;;;;;1118.43;999.90;;;;;;;22.05;41.89;100968.25;5069414;28;20595;-64
2021/06/03 10:22:31;;;;;;;1118.43;999.90;;;;;;;22.05;42.06;100965.53;5070695;28;20033;-67
2021/06/03 10:25:05;;;;;;;1118.13;999.90;;;;;;;22.06;42.29;100969.13;5040492;28;20457;-64
2021/06/03 10:27:39;;;;;;;1117.38;999.90;;;;;;;22.05;41.88;100962.81;5051311;28;20039;-65
2021/06/03 10:30:13;;;;;;;1117.53;999.90;;;;;;;22.08;41.87;100970.63;5050880;28;20045;-67
2021/06/03 10:32:40;;;;;;;1121.15;999.90;;;;;;;22.07;41.93;100979.03;5051197;28;20025;-65
2021/06/03 10:35:10;;;;;;;1120.30;999.90;;;;;;;22.08;41.84;100976.09;5050414;28;20401;-66
2021/06/03 10:37:38;;;;;;;1120.03;999.90;;;;;;;22.08;42.16;100969.78;5043068;28;20025;-66
2021/06/03 10:40:07;;;;;;;1117.88;999.90;;;;;;;22.09;41.90;100974.19;5046383;28;20534;-66
2021/06/03 10:42:34;;;;;;;1121.13;999.90;;;;;;;22.10;41.88;100976.72;5043051;28;20056;-66
2021/06/03 10:45:02;;;;;;;1121.53;999.90;;;;;;;22.10;41.95;100981.34;5049131;28;20048;-63
2021/06/03 10:47:28;;;;;;;1120.13;999.90;;;;;;;22.10;42.07;100982.19;5038913;28;20045;-63
2021/06/03 10:49:59;;;;;;;1122.75;999.90;;;;;;;22.07;42.00;100973.56;5039460;28;20079;-64
2021/06/03 10:52:26;;;;;;;1126.15;999.90;;;;;;;22.05;41.78;100972.88;5042529;28;25417;-62
2021/06/03 10:54:57;;;;;;;1120.68;999.90;;;;;;;22.04;42.00;100968.47;5039395;28;20029;-61
2021/06/03 10:57:48;;;;;;;1118.15;999.90;;;;;;;22.02;42.00;100970.53;5039449;28;20026;-66